Time;durP1;ratioP1;P1;durP2;ratioP2;P2;SDS_P1;SDS_P2;PMS_P1;PMS_P2;Temp;Humidity;BMP_temperature;BMP_pressure;BME280_temperature;BME280_humidity;BME280_pressure;Samples;Min_cycle;Max_cycle;Signal;HPM_P1;HPM_P2
2021/03/04 00:02:09;;;;;;;67.57;31.48;;;;;;;3.67;86.15;101438.34;5056795;28;20025;-76
2021/03/04 00:04:35;;;;;;;65.25;32.03;;;;;;;3.89;85.69;101438.88;5056620;28;20028;-76
2021/03/04 00:07:13;;;;;;;66.13;31.08;;;;;;;3.43;86.58;101438.59;5074224;28;20075;-75
2021/03/04 00:09:57;;;;;;;66.35;30.90;;;;;;;3.82;86.08;101436.19;5056445;28;20059;-76
2021/03/04 00:12:38;;;;;;;61.17;31.08;;;;;;;3.61;86.66;101429.00;5074200;28;20028;-75
2021/03/04 00:15:20;;;;;;;51.90;23.58;;;;;;;3.71;86.33;101422.50;5056434;28;20044;-75
2021/03/04 00:25:13;;;;;;;64.70;31.00;;;;;;;3.75;85.81;101419.25;5074274;28;20052;-75
2021/03/04 00:27:41;;;;;;;62.33;29.88;;;;;;;4.05;83.46;101417.41;5056588;28;20040;-75
2021/03/04 00:30:42;;;;;;;65.28;30.27;;;;;;;3.94;85.34;101416.34;5056117;28;20039;-75
2021/03/04 00:33:21;;;;;;;63.65;30.27;;;;;;;3.64;85.30;101413.13;5055930;28;20032;-75
2021/03/04 00:35:47;;;;;;;64.35;30.55;;;;;;;3.37;85.62;101396.59;5075300;28;20020;-75
2021/03/04 00:38:56;;;;;;;64.65;30.33;;;;;;;3.62;84.51;101413.13;5055765;28;20410;-75
2021/03/04 00:41:49;;;;;;;60.60;28.48;;;;;;;3.14;86.57;101406.91;5032608;28;20061;-75
2021/03/04 00:44:23;;;;;;;64.38;30.30;;;;;;;3.12;86.06;101380.88;5032514;28;20052;-75
2021/03/04 00:46:48;;;;;;;61.53;28.70;;;;;;;3.27;86.39;101389.66;5033570;28;20048;-75
2021/03/04 00:49:14;;;;;;;62.47;29.42;;;;;;;3.30;86.91;101404.81;5032114;28;20483;-76
2021/03/04 00:52:16;;;;;;;56.83;29.17;;;;;;;3.22;86.81;101406.28;5033251;28;20061;-75
2021/03/04 00:58:03;;;;;;;59.23;27.73;;;;;;;3.24;86.34;101376.16;5033537;28;20049;-76
2021/03/04 01:00:54;;;;;;;59.90;29.23;;;;;;;3.41;86.86;101392.47;5032013;28;20268;-75
2021/03/04 01:03:26;;;;;;;45.63;20.90;;;;;;;3.66;86.69;101383.84;5032163;28;20037;-75
2021/03/04 01:06:26;;;;;;;58.72;29.30;;;;;;;3.54;84.75;101380.22;5031883;28;20116;-76
2021/03/04 01:08:56;;;;;;;63.85;29.05;;;;;;;2.75;88.19;101374.09;5031842;28;20037;-75
2021/03/04 01:11:22;;;;;;;57.78;27.15;;;;;;;3.34;87.47;101376.44;5032018;28;20106;-75
2021/03/04 01:13:59;;;;;;;61.28;29.55;;;;;;;3.15;86.33;101345.81;5031743;28;20404;-75
2021/03/04 01:19:46;;;;;;;72.32;31.67;;;;;;;3.37;87.12;101368.09;5033105;28;20103;-74
2021/03/04 01:22:13;;;;;;;76.30;34.72;;;;;;;3.26;87.00;101364.50;5032879;28;20487;-75
2021/03/04 01:24:50;;;;;;;73.05;32.38;;;;;;;3.10;87.79;101365.78;5031927;28;20032;-75
2021/03/04 01:27:30;;;;;;;69.43;31.05;;;;;;;3.01;88.40;101362.22;5032678;28;20446;-75
2021/03/04 01:30:33;;;;;;;67.35;29.42;;;;;;;2.97;87.98;101362.94;5031470;28;20040;-75
2021/03/04 01:33:31;;;;;;;65.07;28.85;;;;;;;2.98;87.97;101360.47;5032699;28;20041;-75
2021/03/04 01:36:17;;;;;;;63.53;28.88;;;;;;;3.11;88.63;101356.59;5032414;28;20402;-75
2021/03/04 01:38:43;;;;;;;63.72;29.27;;;;;;;3.12;88.32;101339.03;5031529;28;20033;-75
2021/03/04 01:41:10;;;;;;;67.25;29.77;;;;;;;3.62;86.43;101351.91;5054645;28;20498;-74
2021/03/04 01:46:57;;;;;;;47.17;22.40;;;;;;;3.26;87.02;101352.78;5072646;28;20044;-75
2021/03/04 01:50:15;;;;;;;65.47;30.30;;;;;;;3.24;87.47;101348.53;5054388;28;20024;-75
2021/03/04 01:53:33;;;;;;;69.80;31.42;;;;;;;3.20;85.84;101347.63;5072153;28;20028;-75
2021/03/04 01:56:33;;;;;;;67.55;31.13;;;;;;;3.36;86.95;101344.66;5054188;28;20098;-75
2021/03/04 01:59:00;;;;;;;71.25;32.53;;;;;;;3.07;86.72;101335.56;5055186;28;20024;-76
2021/03/04 02:01:54;;;;;;;69.72;32.65;;;;;;;3.05;85.64;101343.88;5054678;28;20528;-75
2021/03/04 02:04:53;;;;;;;68.07;30.50;;;;;;;3.13;84.05;101350.78;5054012;28;20032;-75
2021/03/04 02:11:17;;;;;;;63.33;29.15;;;;;;;2.95;85.38;101336.94;5072121;28;20040;-75
2021/03/04 02:14:06;;;;;;;67.05;31.33;;;;;;;3.22;84.90;101340.97;5054363;28;20047;-75
2021/03/04 02:16:44;;;;;;;69.60;31.67;;;;;;;3.55;82.48;101333.31;5063059;28;20038;-75
2021/03/04 02:19:40;;;;;;;66.93;32.33;;;;;;;3.02;85.26;101342.16;5072274;28;20039;-75
2021/03/04 02:25:57;;;;;;;68.72;32.80;;;;;;;3.21;83.23;101335.91;5091994;28;20056;-75
2021/03/04 02:29:18;;;;;;;65.63;33.05;;;;;;;3.34;81.97;101330.34;5089950;28;20066;-75
2021/03/04 02:32:21;;;;;;;74.68;34.50;;;;;;;2.77;85.05;101337.34;5073499;28;20119;-75
2021/03/04 02:39:03;;;;;;;68.25;33.92;;;;;;;2.77;83.51;101331.47;5092074;28;20097;-75
2021/03/04 02:41:33;;;;;;;70.63;32.97;;;;;;;3.04;82.23;101317.91;5091763;28;20101;-75
2021/03/04 02:44:13;;;;;;;73.75;34.75;;;;;;;2.50;84.86;101309.84;5091735;28;20032;-75
2021/03/04 02:46:59;;;;;;;73.22;34.28;;;;;;;2.93;83.83;101315.97;5073813;28;20024;-75
2021/03/04 02:53:06;;;;;;;70.68;33.22;;;;;;;2.98;82.51;101302.69;5091550;28;20046;-75
2021/03/04 02:55:49;;;;;;;72.28;31.77;;;;;;;2.61;82.71;101317.69;5073938;28;20580;-75
2021/03/04 02:59:03;;;;;;;67.25;33.13;;;;;;;2.73;83.79;101324.66;5091506;28;20048;-75
2021/03/04 03:01:47;;;;;;;64.38;31.08;;;;;;;2.88;82.01;101308.31;5073605;28;20028;-75
2021/03/04 03:04:18;;;;;;;63.38;29.05;;;;;;;2.41;82.31;101298.75;5091695;28;20051;-75
2021/03/04 03:07:27;;;;;;;60.67;28.65;;;;;;;2.15;83.80;101319.75;5073928;28;20032;-75
2021/03/04 03:10:28;;;;;;;58.42;26.52;;;;;;;2.26;82.92;101314.22;5073562;28;20024;-75
2021/03/04 03:13:06;;;;;;;59.75;27.27;;;;;;;1.95;84.43;101310.84;5073663;28;20028;-75
2021/03/04 03:15:33;;;;;;;61.75;28.27;;;;;;;2.15;83.31;101304.72;5073332;28;20032;-75
2021/03/04 03:18:00;;;;;;;64.22;29.10;;;;;;;2.17;83.38;101303.97;5073514;28;20031;-75
2021/03/04 03:20:44;;;;;;;64.65;29.90;;;;;;;2.19;82.63;101296.47;5091593;28;20020;-75
2021/03/04 03:23:11;;;;;;;68.13;30.27;;;;;;;1.95;83.76;101299.16;5074062;28;20481;-76
2021/03/04 03:26:09;;;;;;;57.65;27.85;;;;;;;2.12;83.38;101309.66;5093781;28;20119;-76
2021/03/04 03:28:51;;;;;;;68.60;27.98;;;;;;;1.85;83.98;101313.88;5073494;28;20039;-76
2021/03/04 03:31:34;;;;;;;57.55;27.77;;;;;;;1.99;83.38;101298.44;5073660;28;20024;-76
2021/03/04 03:34:52;;;;;;;52.70;26.38;;;;;;;1.56;84.89;101306.41;5091654;28;20030;-75
2021/03/04 03:37:20;;;;;;;56.00;26.85;;;;;;;1.81;83.46;101295.41;5076946;28;20036;-75
2021/03/04 03:39:49;;;;;;;56.63;28.08;;;;;;;1.38;86.14;101283.31;5073449;28;20049;-75
2021/03/04 03:42:36;;;;;;;64.07;27.40;;;;;;;2.18;83.53;101294.78;5074711;28;20032;-76
2021/03/04 03:45:29;;;;;;;59.90;29.10;;;;;;;2.08;84.08;101303.69;5074788;28;20082;-76
2021/03/04 03:47:55;;;;;;;62.85;29.25;;;;;;;2.08;83.49;101293.66;5073339;28;20525;-77
2021/03/04 03:50:55;;;;;;;62.08;30.35;;;;;;;2.33;83.30;101300.19;5073521;28;20028;-77
2021/03/04 03:53:36;;;;;;;60.53;29.25;;;;;;;1.98;83.55;101295.88;5075062;28;20477;-77
2021/03/04 03:56:20;;;;;;;62.13;29.38;;;;;;;2.03;83.45;101299.38;5073667;28;20029;-76
2021/03/04 03:59:36;;;;;;;69.72;31.67;;;;;;;2.71;81.47;101283.59;5074699;28;20036;-76
2021/03/04 04:02:38;;;;;;;74.60;33.00;;;;;;;2.32;81.88;101294.31;5074565;28;20094;-76
2021/03/04 04:05:16;;;;;;;77.05;35.20;;;;;;;2.41;83.26;101284.53;5073235;28;20489;-76
2021/03/04 04:08:01;;;;;;;87.43;38.40;;;;;;;2.43;83.60;101274.53;5074311;28;20089;-75
2021/03/04 04:10:29;;;;;;;85.57;36.58;;;;;;;2.08;85.08;101293.66;5073213;28;20044;-76
2021/03/04 04:12:59;;;;;;;77.45;35.33;;;;;;;2.46;84.25;101277.97;5074524;28;20048;-76
2021/03/04 04:15:42;;;;;;;69.93;32.60;;;;;;;1.80;85.77;101271.16;5072340;28;20036;-76
2021/03/04 04:18:22;;;;;;;65.57;32.45;;;;;;;2.14;84.74;101282.97;5073859;28;20020;-76
2021/03/04 04:24:21;;;;;;;81.95;36.88;;;;;;;2.02;84.05;101273.44;5075392;28;20094;-77
2021/03/04 04:27:00;;;;;;;66.47;33.97;;;;;;;2.36;81.65;101267.66;5073454;28;20543;-77
2021/03/04 04:29:39;;;;;;;72.43;36.15;;;;;;;2.18;82.11;101252.97;5071639;28;20032;-77
2021/03/04 04:32:10;;;;;;;73.85;38.42;;;;;;;2.15;82.25;101254.56;5072193;28;20032;-77
2021/03/04 04:34:37;;;;;;;77.18;39.53;;;;;;;2.14;81.60;101257.88;5072710;28;20028;-76
2021/03/04 04:37:04;;;;;;;90.25;42.13;;;;;;;2.22;81.23;101261.44;5075049;28;20028;-76
2021/03/04 04:39:29;;;;;;;85.80;42.05;;;;;;;1.90;81.36;101258.09;5074811;28;20049;-75
2021/03/04 04:42:00;;;;;;;90.95;43.97;;;;;;;2.03;80.70;101255.09;5076840;28;20154;-76
2021/03/04 04:44:38;;;;;;;99.35;47.28;;;;;;;1.93;82.51;101254.78;5075980;28;20524;-76
2021/03/04 04:47:03;;;;;;;103.47;47.97;;;;;;;1.94;81.50;101249.81;5102661;28;20020;-81
2021/03/04 04:49:30;;;;;;;118.18;55.45;;;;;;;1.50;80.83;101241.06;5097349;28;20047;-76
2021/03/04 04:52:14;;;;;;;122.53;60.45;;;;;;;1.64;80.97;101256.50;5075122;28;20477;-76
2021/03/04 04:55:14;;;;;;;92.57;48.95;;;;;;;1.32;81.93;101267.22;5075570;28;20031;-77
2021/03/04 04:57:49;;;;;;;89.22;48.45;;;;;;;1.53;82.00;101253.69;5075207;28;20043;-78
2021/03/04 05:00:25;;;;;;;99.38;47.67;;;;;;;1.81;80.11;101256.94;5075113;28;20124;-80
2021/03/04 05:02:55;;;;;;;86.50;40.22;;;;;;;1.91;79.57;101241.34;5075019;28;20028;-77
2021/03/04 05:05:38;;;;;;;74.70;37.15;;;;;;;0.90;82.33;101229.22;5074327;28;20063;-79
2021/03/04 05:08:11;;;;;;;61.20;29.35;;;;;;;1.25;80.25;101236.13;5074584;28;20023;-80
2021/03/04 05:10:49;;;;;;;66.22;32.28;;;;;;;0.94;80.97;101253.53;5074384;28;20046;-83
2021/03/04 05:13:14;;;;;;;58.70;27.17;;;;;;;0.58;81.82;101235.72;5041930;28;20024;-79
2021/03/04 05:15:55;;;;;;;64.25;29.52;;;;;;;1.51;79.31;101245.25;5075157;28;20031;-80
2021/03/04 05:18:20;;;;;;;49.35;24.70;;;;;;;0.78;80.17;101252.22;5073998;28;20023;-80
2021/03/04 05:20:48;;;;;;;49.50;25.85;;;;;;;1.51;79.88;101247.78;5074714;28;20489;-80
2021/03/04 05:23:25;;;;;;;50.22;23.60;;;;;;;1.20;78.95;101250.19;5093045;28;20020;-83
2021/03/04 05:25:50;;;;;;;47.00;22.52;;;;;;;2.47;74.74;101226.13;5074095;28;20032;-81
2021/03/04 05:28:16;;;;;;;64.75;35.95;;;;;;;3.32;71.37;101237.34;5092687;28;20459;-81
2021/03/04 05:30:43;;;;;;;63.75;35.28;;;;;;;3.68;69.24;101228.84;5074513;28;20066;-81
2021/03/04 05:33:19;;;;;;;52.13;27.73;;;;;;;2.38;72.98;101220.88;5092353;28;20097;-79
2021/03/04 05:35:44;;;;;;;57.33;32.85;;;;;;;2.00;76.17;101224.06;5074169;28;20047;-77
2021/03/04 05:38:13;;;;;;;77.80;43.67;;;;;;;2.58;76.12;101243.16;5074737;28;20060;-76
2021/03/04 05:40:46;;;;;;;48.53;23.83;;;;;;;1.94;76.16;101218.91;5073378;28;20165;-75
2021/03/04 05:43:14;;;;;;;56.00;24.90;;;;;;;1.04;79.45;101252.16;5073356;28;20489;-78
2021/03/04 05:45:53;;;;;;;69.10;33.45;;;;;;;2.15;83.37;101232.00;5054989;28;20115;-80
2021/03/04 05:48:41;;;;;;;80.30;40.40;;;;;;;2.87;74.54;101235.47;5055304;28;20443;-79
2021/03/04 05:51:33;;;;;;;76.40;34.08;;;;;;;3.54;69.87;101241.16;5054574;28;20420;-79
2021/03/04 05:57:21;;;;;;;74.55;31.73;;;;;;;3.16;73.32;101237.81;5072134;28;20059;-78
2021/03/04 06:00:06;;;;;;;76.13;36.08;;;;;;;2.15;75.06;101234.50;5054377;28;20032;-78
2021/03/04 06:02:58;;;;;;;76.15;35.33;;;;;;;2.91;73.36;101232.22;5054642;28;20060;-77
2021/03/04 06:06:07;;;;;;;82.35;38.35;;;;;;;2.56;74.27;101236.38;5067662;28;20053;-79
2021/03/04 06:09:29;;;;;;;77.82;37.15;;;;;;;3.28;72.06;101233.06;5054944;28;20377;-76
2021/03/04 06:15:21;;;;;;;78.97;40.53;;;;;;;2.29;74.00;101213.13;5072775;28;20102;-77
2021/03/04 06:21:24;;;;;;;103.35;51.53;;;;;;;2.77;74.37;101238.56;5072642;28;20086;-78
2021/03/04 06:24:18;;;;;;;120.03;58.17;;;;;;;3.19;73.13;101240.38;5054530;28;20421;-78
2021/03/04 06:27:16;;;;;;;110.28;59.40;;;;;;;3.74;71.99;101237.38;5054595;28;20037;-77
2021/03/04 06:29:52;;;;;;;119.47;59.22;;;;;;;4.08;69.99;101228.81;5054229;28;20028;-77
2021/03/04 06:32:23;;;;;;;122.05;62.63;;;;;;;4.59;69.03;101234.75;5054449;28;20028;-77
2021/03/04 06:35:04;;;;;;;135.90;74.35;;;;;;;4.66;69.21;101221.41;5053953;28;20078;-76
2021/03/04 06:40:52;;;;;;;88.30;42.70;;;;;;;5.62;66.62;101233.69;5069373;28;20113;-78
2021/03/04 06:44:05;;;;;;;68.18;33.08;;;;;;;4.71;70.25;101242.50;5071991;28;20029;-78
2021/03/04 06:46:57;;;;;;;83.40;38.47;;;;;;;4.62;70.71;101234.78;5054105;28;20487;-78
2021/03/04 06:49:35;;;;;;;88.03;39.90;;;;;;;4.49;71.85;101230.38;5072088;28;20029;-79
2021/03/04 06:55:22;;;;;;;63.92;28.65;;;;;;;3.55;76.56;101220.22;5072001;28;20051;-78
2021/03/04 07:01:18;;;;;;;58.40;27.53;;;;;;;4.09;76.74;101230.50;5072089;28;20039;-75
2021/03/04 07:03:58;;;;;;;55.63;27.25;;;;;;;3.32;78.73;101206.34;5053987;28;20074;-75
2021/03/04 07:06:38;;;;;;;57.75;25.73;;;;;;;3.26;78.91;101202.03;5053717;28;20029;-77
2021/03/04 07:09:14;;;;;;;60.15;29.05;;;;;;;4.66;75.84;101216.38;5055232;28;20028;-77
2021/03/04 07:12:23;;;;;;;65.75;27.90;;;;;;;4.86;75.37;101220.06;5057772;28;20028;-77
2021/03/04 07:18:11;;;;;;;77.82;31.65;;;;;;;5.37;74.58;101198.94;5075831;28;20093;-77
2021/03/04 07:24:02;;;;;;;69.00;27.08;;;;;;;6.64;70.53;101185.94;5075586;28;20042;-77
2021/03/04 07:26:30;;;;;;;94.38;37.65;;;;;;;5.92;72.20;101196.25;5064622;28;20480;-77
2021/03/04 07:29:08;;;;;;;87.05;37.13;;;;;;;7.00;69.78;101188.72;5058784;28;20055;-76
2021/03/04 07:32:11;;;;;;;88.72;36.17;;;;;;;6.58;70.31;101186.75;5057591;28;20031;-77
2021/03/04 07:37:58;;;;;;;71.63;31.23;;;;;;;6.73;70.82;101165.81;5075290;28;20127;-77
2021/03/04 07:40:24;;;;;;;66.47;31.27;;;;;;;7.52;69.38;101156.94;5053835;28;20073;-77
2021/03/04 07:46:11;;;;;;;48.53;26.25;;;;;;;7.51;69.99;101140.91;5055486;28;20103;-77
2021/03/04 07:49:16;;;;;;;71.28;30.17;;;;;;;8.36;68.03;101151.22;5054818;28;20029;-78
2021/03/04 07:52:16;;;;;;;58.13;28.45;;;;;;;8.35;67.99;101157.09;5054987;28;20033;-79
2021/03/04 07:58:13;;;;;;;79.20;31.30;;;;;;;8.46;69.64;101145.25;5055228;28;20075;-77
2021/03/04 08:00:45;;;;;;;47.83;27.63;;;;;;;8.10;69.57;101137.66;5054824;28;20032;-79
2021/03/04 08:03:49;;;;;;;64.95;33.58;;;;;;;8.92;68.64;101134.22;5053895;28;20078;-77
2021/03/04 08:06:42;;;;;;;55.33;31.77;;;;;;;9.27;66.69;101129.84;5053400;28;20544;-77
2021/03/04 08:12:29;;;;;;;64.33;30.73;;;;;;;8.84;68.00;101109.72;5054568;28;20039;-77
2021/03/04 08:14:58;;;;;;;53.30;27.80;;;;;;;9.52;66.69;101092.53;5054431;28;20268;-77
2021/03/04 08:17:53;;;;;;;129.32;43.45;;;;;;;9.35;67.00;101114.59;5055063;28;20071;-77
2021/03/04 08:20:39;;;;;;;88.35;32.80;;;;;;;9.16;67.45;101118.06;5052657;28;20033;-76
2021/03/04 08:23:31;;;;;;;44.22;24.23;;;;;;;9.97;64.90;101112.53;5053343;28;20035;-77
2021/03/04 08:29:19;;;;;;;41.47;21.43;;;;;;;9.35;65.62;101086.69;5054557;28;20132;-77
2021/03/04 08:31:48;;;;;;;42.00;22.27;;;;;;;10.43;64.30;101088.47;5053331;28;20284;-77
2021/03/04 08:34:47;;;;;;;41.75;23.63;;;;;;;10.61;62.79;101076.41;5054658;28;20079;-77
2021/03/04 08:37:23;;;;;;;38.53;22.02;;;;;;;10.05;63.37;101070.13;5010020;28;20453;-78
2021/03/04 08:40:13;;;;;;;43.95;22.42;;;;;;;10.05;64.47;101074.38;5053748;28;20032;-77
2021/03/04 08:46:07;;;;;;;48.72;28.52;;;;;;;10.59;62.98;101053.56;5034778;28;20044;-77
2021/03/04 08:49:16;;;;;;;41.10;22.00;;;;;;;10.23;62.94;101067.47;5032703;28;20018;-78
2021/03/04 08:52:06;;;;;;;39.83;21.80;;;;;;;10.48;63.49;101057.91;5039829;28;20030;-77
2021/03/04 08:54:32;;;;;;;42.20;22.85;;;;;;;10.94;62.71;101048.91;5033612;28;20036;-77
2021/03/04 08:57:50;;;;;;;40.30;21.75;;;;;;;11.28;61.52;101044.22;5033022;28;20034;-77
2021/03/04 09:03:42;;;;;;;38.67;19.98;;;;;;;10.86;59.79;101037.97;5034166;28;20048;-77
2021/03/04 09:06:32;;;;;;;34.63;20.15;;;;;;;11.73;59.04;101035.94;5032574;28;20045;-77
2021/03/04 09:09:40;;;;;;;37.22;22.25;;;;;;;11.94;59.48;101030.47;5033740;28;20029;-78
2021/03/04 09:12:27;;;;;;;38.58;22.10;;;;;;;11.80;58.74;101022.25;5032417;28;20124;-78
2021/03/04 09:18:15;;;;;;;37.83;20.87;;;;;;;11.37;60.21;101002.53;5033453;28;20108;-76
2021/03/04 09:24:03;;;;;;;37.30;20.97;;;;;;;12.54;56.57;100969.06;5033644;28;20044;-76
2021/03/04 09:27:05;;;;;;;37.20;21.55;;;;;;;12.41;57.04;100985.47;5032257;28;20021;-76
2021/03/04 09:29:32;;;;;;;39.08;22.10;;;;;;;12.11;56.80;100977.53;5033136;28;20033;-77
2021/03/04 09:32:53;;;;;;;39.65;23.23;;;;;;;12.91;55.65;100975.09;5031311;28;20030;-77
2021/03/04 09:35:55;;;;;;;39.15;22.48;;;;;;;13.06;56.21;100979.88;5032076;28;20052;-77
2021/03/04 09:38:50;;;;;;;41.28;22.15;;;;;;;13.61;54.04;100971.78;5032265;28;20467;-78
2021/03/04 09:41:17;;;;;;;39.10;24.38;;;;;;;12.72;55.48;100961.00;5053527;28;20135;-78
2021/03/04 09:43:56;;;;;;;39.13;23.17;;;;;;;13.07;55.56;100957.75;5055193;28;20012;-78
2021/03/04 09:47:14;;;;;;;38.60;22.15;;;;;;;13.36;54.39;100960.47;5054997;28;20029;-78
2021/03/04 09:53:06;;;;;;;34.55;19.40;;;;;;;13.33;53.10;100953.72;5073015;28;20051;-79
2021/03/04 09:56:01;;;;;;;31.50;18.83;;;;;;;12.92;54.71;100951.22;5074697;28;20047;-79
2021/03/04 09:59:14;;;;;;;32.80;20.27;;;;;;;13.37;53.20;100942.53;5056521;28;20123;-78
2021/03/04 10:01:45;;;;;;;37.65;21.35;;;;;;;13.80;52.50;100935.53;5075166;28;20024;-78
2021/03/04 10:04:12;;;;;;;34.03;20.77;;;;;;;13.56;53.77;100931.03;5076178;28;20028;-78
2021/03/04 10:07:17;;;;;;;38.58;23.10;;;;;;;14.24;52.67;100928.38;5057738;28;20865;-78
2021/03/04 10:09:49;;;;;;;38.22;21.50;;;;;;;13.90;53.68;100918.22;5075969;28;20040;-78
2021/03/04 10:12:17;;;;;;;34.90;21.02;;;;;;;13.64;53.57;100916.34;5055047;28;20059;-77
2021/03/04 10:14:47;;;;;;;33.15;20.90;;;;;;;14.64;51.65;100898.22;5076606;28;20023;-77
2021/03/04 10:17:27;;;;;;;34.65;19.75;;;;;;;14.23;52.26;100904.50;5075023;28;20035;-75
2021/03/04 10:20:28;;;;;;;38.08;21.95;;;;;;;13.79;51.87;100905.72;5072235;28;20043;-74
2021/03/04 10:23:09;;;;;;;34.03;20.67;;;;;;;15.27;49.29;100893.66;5072406;28;20036;-78
2021/03/04 10:25:48;;;;;;;33.53;20.13;;;;;;;16.20;46.78;100886.22;5071752;28;20039;-75
2021/03/04 10:28:14;;;;;;;34.30;20.58;;;;;;;14.85;49.26;100884.78;5072056;28;20034;-72
2021/03/04 10:31:15;;;;;;;34.47;20.63;;;;;;;13.66;52.18;100880.50;5053889;28;20039;-78
2021/03/04 10:33:46;;;;;;;33.35;19.80;;;;;;;15.07;48.37;100865.31;5053932;28;20040;-76
2021/03/04 10:36:47;;;;;;;31.30;20.17;;;;;;;15.28;48.65;100861.19;5053850;28;20125;-74
2021/03/04 10:39:39;;;;;;;32.13;20.40;;;;;;;15.56;46.93;100852.56;5054141;28;20119;-77
2021/03/04 10:45:26;;;;;;;27.47;17.00;;;;;;;14.92;47.35;100847.00;5072360;28;20119;-75
2021/03/04 10:48:11;;;;;;;30.23;18.02;;;;;;;15.99;46.09;100835.66;5071627;28;20270;-75
2021/03/04 10:50:55;;;;;;;31.65;18.20;;;;;;;16.33;43.99;100839.50;5072223;28;20137;-76
2021/03/04 10:56:43;;;;;;;30.23;18.63;;;;;;;16.33;44.43;100820.69;5071910;28;20048;-75
2021/03/04 10:59:37;;;;;;;29.77;18.25;;;;;;;17.13;42.64;100814.94;5071469;28;20024;-75
2021/03/04 11:02:03;;;;;;;27.58;17.55;;;;;;;16.23;43.66;100811.66;5071442;28;20039;-75
2021/03/04 11:04:40;;;;;;;29.58;17.20;;;;;;;16.46;43.64;100798.78;5053324;28;20025;-75
2021/03/04 11:10:41;;;;;;;25.95;17.67;;;;;;;16.51;42.83;100781.50;5071369;28;20469;-75
2021/03/04 11:13:39;;;;;;;27.98;17.63;;;;;;;16.61;43.02;100780.25;5071584;28;20025;-75
2021/03/04 11:20:05;;;;;;;27.90;17.55;;;;;;;17.10;42.05;100759.38;5071536;28;20074;-74
2021/03/04 11:22:31;;;;;;;29.70;17.25;;;;;;;16.71;42.79;100735.34;5053220;28;20509;-74
2021/03/04 11:25:11;;;;;;;31.58;19.00;;;;;;;16.58;43.86;100725.63;5053399;28;20074;-74
2021/03/04 11:28:16;;;;;;;32.95;19.33;;;;;;;17.53;42.54;100747.28;5053501;28;20111;-75
2021/03/04 11:30:55;;;;;;;39.28;23.05;;;;;;;16.48;45.26;100738.81;5071919;28;20025;-75
2021/03/04 11:36:43;;;;;;;35.42;23.88;;;;;;;16.78;43.84;100718.75;5076449;28;20067;-75
2021/03/04 11:42:30;;;;;;;31.23;19.75;;;;;;;17.11;43.77;100707.06;5060312;28;20043;-76
2021/03/04 11:44:56;;;;;;;28.48;18.88;;;;;;;17.51;42.86;100707.94;5071046;28;20032;-75
2021/03/04 11:47:23;;;;;;;34.10;19.30;;;;;;;18.22;42.21;100691.75;5071273;28;20028;-75
2021/03/04 11:49:52;;;;;;;31.23;20.27;;;;;;;18.16;42.43;100693.69;5053055;28;20025;-75
2021/03/04 11:52:26;;;;;;;32.80;20.65;;;;;;;17.94;42.80;100687.06;5071178;28;20048;-77
2021/03/04 11:54:53;;;;;;;29.13;19.13;;;;;;;18.58;40.57;100683.06;5071793;28;20029;-78
2021/03/04 11:57:39;;;;;;;39.00;21.85;;;;;;;17.75;43.10;100687.06;5074909;28;20024;-76
2021/03/04 12:00:29;;;;;;;31.35;20.65;;;;;;;18.37;41.89;100678.13;5057027;28;20119;-76
2021/03/04 12:03:11;;;;;;;35.30;22.92;;;;;;;18.37;41.55;100655.78;5075860;28;20035;-76
2021/03/04 12:08:40;;;;;;;32.85;20.02;;;;;;;18.40;41.45;100647.88;5074677;28;19919;-76
2021/03/04 12:11:07;;;;;;;33.50;20.48;;;;;;;17.61;42.32;100655.19;5056756;28;20029;-76
2021/03/04 12:14:19;;;;;;;34.38;21.60;;;;;;;17.85;42.15;100652.28;5074474;28;20017;-76
2021/03/04 12:16:48;;;;;;;32.47;20.40;;;;;;;18.32;41.92;100652.63;5074880;28;20063;-75
2021/03/04 12:23:20;;;;;;;30.27;19.55;;;;;;;19.16;40.02;100637.13;5074665;28;20047;-76
2021/03/04 12:26:29;;;;;;;32.60;22.05;;;;;;;19.87;38.82;100635.84;5056600;28;20036;-76
2021/03/04 12:29:18;;;;;;;29.05;18.98;;;;;;;18.57;41.77;100616.19;5074285;28;20510;-76
2021/03/04 12:32:16;;;;;;;29.50;19.25;;;;;;;19.04;40.41;100612.00;5074007;28;20470;-76
2021/03/04 12:34:42;;;;;;;27.33;17.85;;;;;;;18.80;39.63;100600.38;5056489;28;20029;-76
2021/03/04 12:38:02;;;;;;;25.15;17.10;;;;;;;18.54;40.67;100598.34;5074659;28;20028;-76
2021/03/04 12:40:28;;;;;;;27.55;17.58;;;;;;;19.03;39.74;100594.88;5056323;28;20028;-76
2021/03/04 12:46:15;;;;;;;22.97;14.50;;;;;;;18.27;39.27;100574.75;5074327;28;20055;-77
2021/03/04 12:49:15;;;;;;;20.13;13.63;;;;;;;18.46;38.02;100583.25;5073907;28;20498;-76
2021/03/04 12:55:03;;;;;;;21.63;15.82;;;;;;;18.88;38.51;100562.16;5074511;28;20074;-76
2021/03/04 12:57:43;;;;;;;23.30;13.13;;;;;;;18.01;38.39;100563.19;5073312;28;20051;-76
2021/03/04 13:00:15;;;;;;;16.48;11.73;;;;;;;18.24;38.26;100563.78;5064160;28;20032;-77
2021/03/04 13:03:06;;;;;;;19.80;13.45;;;;;;;18.65;38.17;100570.28;5074858;28;20028;-75
2021/03/04 13:05:47;;;;;;;22.02;14.52;;;;;;;19.38;35.95;100559.47;5073272;28;20067;-76
2021/03/04 13:08:48;;;;;;;17.17;11.82;;;;;;;18.98;35.61;100555.59;5073113;28;20035;-76
2021/03/04 13:11:56;;;;;;;23.92;15.25;;;;;;;19.29;34.92;100549.66;5073379;28;20024;-76
2021/03/04 13:14:25;;;;;;;17.58;12.80;;;;;;;19.02;34.85;100541.66;5055479;28;20036;-76
2021/03/04 13:17:34;;;;;;;18.05;13.13;;;;;;;18.66;36.51;100538.47;5073021;28;20031;-76
2021/03/04 13:23:29;;;;;;;19.60;12.85;;;;;;;19.10;35.49;100533.50;5073403;28;20047;-76
2021/03/04 13:26:25;;;;;;;21.58;14.32;;;;;;;18.66;36.31;100533.31;5072710;28;20036;-77
2021/03/04 13:29:03;;;;;;;21.85;13.82;;;;;;;19.55;34.97;100520.72;5055082;28;20085;-76
2021/03/04 13:31:29;;;;;;;20.38;14.30;;;;;;;19.68;33.99;100521.66;5054983;28;20409;-76
2021/03/04 13:33:55;;;;;;;25.17;15.00;;;;;;;19.64;34.54;100504.69;5055146;28;20033;-76
2021/03/04 13:37:18;;;;;;;21.40;14.90;;;;;;;20.08;34.16;100518.47;5054776;28;20405;-77
2021/03/04 13:46:23;;;;;;;20.50;13.77;;;;;;;19.65;35.12;100499.44;5072849;28;20116;-77
2021/03/04 13:49:37;;;;;;;18.58;13.40;;;;;;;20.13;34.05;100495.78;5072639;28;20027;-79
2021/03/04 13:55:24;;;;;;;18.52;13.52;;;;;;;20.11;34.03;100489.03;5073036;28;20078;-76
2021/03/04 13:58:05;;;;;;;20.55;12.80;;;;;;;19.79;33.92;100483.16;5073107;28;20052;-78
2021/03/04 14:01:10;;;;;;;21.30;13.73;;;;;;;19.37;33.66;100483.03;5054479;28;20082;-78
2021/03/04 14:04:05;;;;;;;28.45;21.27;;;;;;;19.59;33.91;100475.75;5054682;28;20039;-77
2021/03/04 14:06:36;;;;;;;16.95;13.13;;;;;;;20.22;33.40;100471.19;5072205;28;20021;-77
2021/03/04 14:12:05;;;;;;;26.63;18.75;;;;;;;19.67;34.60;100469.22;5072306;28;19919;-77
2021/03/04 14:14:31;;;;;;;32.25;17.63;;;;;;;19.52;34.35;100477.00;5054742;28;20029;-77
2021/03/04 14:20:18;;;;;;;28.27;17.77;;;;;;;19.46;33.62;100423.19;5071601;28;20059;-77
2021/03/04 14:22:46;;;;;;;21.65;14.30;;;;;;;19.76;33.94;100465.28;5066560;28;20036;-78
2021/03/04 14:28:23;;;;;;;61.45;31.67;;;;;;;21.93;30.23;100453.34;5072327;28;20036;-78
2021/03/04 14:30:53;;;;;;;24.98;15.45;;;;;;;23.43;27.33;100457.41;5054878;28;20023;-77
2021/03/04 14:33:25;;;;;;;24.08;16.92;;;;;;;22.81;28.66;100453.28;5071902;28;20413;-77
2021/03/04 14:36:02;;;;;;;25.40;18.00;;;;;;;22.45;29.53;100467.00;5054362;28;20021;-78
2021/03/04 14:38:34;;;;;;;24.85;16.95;;;;;;;21.79;30.19;100445.66;5072136;28;20036;-77
2021/03/04 14:41:01;;;;;;;23.15;15.57;;;;;;;23.03;28.18;100445.63;5071701;28;20029;-78
2021/03/04 14:43:27;;;;;;;24.83;15.93;;;;;;;22.38;29.03;100453.63;5053745;28;20041;-77
2021/03/04 14:45:54;;;;;;;23.00;16.55;;;;;;;21.72;30.00;100436.63;5072134;28;20031;-77
2021/03/04 14:48:28;;;;;;;29.45;19.95;;;;;;;22.16;29.30;100440.53;5054034;28;20020;-77
2021/03/04 14:50:54;;;;;;;23.58;15.40;;;;;;;23.08;28.52;100441.75;5054077;28;20027;-77
2021/03/04 14:53:26;;;;;;;19.85;14.43;;;;;;;23.19;27.94;100412.44;5071523;28;20044;-76